createdAt,value
2023-04-12T00:01:29.424Z,7.70
2023-04-12T00:03:56.350Z,9.70
2023-04-12T00:06:27.741Z,7.60
2023-04-12T00:08:54.753Z,7.60
2023-04-12T00:11:21.479Z,8.60
2023-04-12T00:13:48.330Z,7.70
2023-04-12T00:16:16.108Z,7.60
2023-04-12T00:18:45.863Z,7.60
2023-04-12T00:21:13.470Z,7.50
2023-04-12T00:23:40.213Z,7.50
2023-04-12T00:26:07.033Z,7.50
2023-04-12T00:28:33.641Z,7.40
2023-04-12T00:31:00.294Z,7.50
2023-04-12T00:33:26.960Z,7.30
2023-04-12T00:35:53.556Z,7.30
2023-04-12T00:38:20.333Z,7.40
2023-04-12T00:40:47.281Z,7.40
2023-04-12T00:43:19.187Z,7.30
2023-04-12T00:45:49.686Z,7.30
2023-04-12T00:48:16.811Z,7.20
2023-04-12T00:50:44.942Z,7.20
2023-04-12T00:53:13.557Z,7.20
2023-04-12T00:55:40.935Z,7.70
2023-04-12T00:58:08.027Z,7.20
2023-04-12T01:00:34.772Z,7.20
2023-04-12T01:03:02.670Z,7.20
2023-04-12T01:05:30.420Z,7.20
2023-04-12T01:08:15.720Z,7.20
2023-04-12T01:10:53.635Z,7.10
2023-04-12T01:13:20.349Z,7.10
2023-04-12T01:16:26.392Z,7.10
2023-04-12T01:18:58.314Z,7.10
2023-04-12T01:21:31.503Z,7.10
2023-04-12T01:23:58.485Z,7.10
2023-04-12T01:26:40.991Z,7.10
2023-04-12T01:29:12.110Z,7.10
2023-04-12T01:31:40.621Z,7.10
2023-04-12T01:34:09.463Z,7.10
2023-04-12T01:36:37.625Z,7.10
2023-04-12T01:39:05.097Z,4.70
2023-04-12T01:41:32.850Z,7.00
2023-04-12T01:43:59.672Z,7.00
2023-04-12T01:46:26.379Z,7.00
2023-04-12T01:48:53.891Z,7.00
2023-04-12T01:51:28.623Z,7.00
2023-04-12T01:53:59.297Z,7.00
2023-04-12T01:56:30.499Z,7.00
2023-04-12T01:58:57.879Z,7.00
2023-04-12T02:01:25.377Z,6.90
2023-04-12T02:03:52.763Z,6.90
2023-04-12T02:06:20.921Z,6.90
2023-04-12T02:08:48.232Z,6.90
2023-04-12T02:11:14.966Z,7.00
2023-04-12T02:13:41.727Z,7.00
2023-04-12T02:16:10.851Z,7.00
2023-04-12T02:18:37.782Z,6.90
2023-04-12T02:21:04.599Z,9.10
2023-04-12T02:23:31.432Z,6.90
2023-04-12T02:25:58.154Z,7.00
2023-04-12T02:28:25.131Z,6.90
2023-04-12T02:30:54.207Z,6.90
2023-04-12T02:33:21.862Z,6.90
2023-04-12T02:35:48.529Z,7.00
2023-04-12T02:38:15.138Z,6.90
2023-04-12T02:40:42.289Z,6.90
2023-04-12T02:43:09.911Z,6.90
2023-04-12T02:45:36.646Z,6.90
2023-04-12T02:48:05.255Z,6.90
2023-04-12T02:50:32.277Z,6.90
2023-04-12T02:52:58.878Z,6.90
2023-04-12T02:55:25.814Z,6.90
2023-04-12T02:57:53.697Z,6.80
2023-04-12T03:00:21.831Z,6.90
2023-04-12T03:02:51.749Z,6.90
2023-04-12T03:05:18.940Z,6.90
2023-04-12T03:07:46.501Z,6.90
2023-04-12T03:10:13.469Z,6.90
2023-04-12T03:12:40.126Z,6.80
2023-04-12T03:15:07.076Z,6.90
2023-04-12T03:17:33.747Z,6.90
2023-04-12T03:20:10.424Z,6.90
2023-04-12T03:22:37.406Z,6.80
2023-04-12T03:25:05.377Z,7.20
2023-04-12T03:27:32.414Z,6.80
2023-04-12T03:29:59.218Z,6.80
2023-04-12T03:32:25.994Z,6.80
2023-04-12T03:34:52.680Z,6.90
2023-04-12T03:37:19.635Z,7.40
2023-04-12T03:39:48.330Z,6.80
2023-04-12T03:42:29.420Z,6.80
2023-04-12T03:44:59.362Z,6.80
2023-04-12T03:47:25.990Z,6.80
2023-04-12T03:50:10.332Z,6.70
2023-04-12T03:52:38.137Z,6.70
2023-04-12T03:55:07.090Z,6.70
2023-04-12T03:57:33.833Z,6.70
2023-04-12T04:00:00.693Z,6.70
2023-04-12T04:02:27.778Z,6.80
2023-04-12T04:04:54.732Z,6.80
2023-04-12T04:07:22.738Z,6.80
2023-04-12T04:09:50.263Z,6.70
2023-04-12T04:12:17.041Z,6.80
2023-04-12T04:14:44.341Z,6.80
2023-04-12T04:17:11.514Z,6.80
2023-04-12T04:19:38.331Z,6.80
2023-04-12T04:22:05.223Z,6.70
2023-04-12T04:24:32.128Z,6.70
2023-04-12T04:26:58.915Z,6.70
2023-04-12T04:29:26.236Z,6.70
2023-04-12T04:31:53.799Z,6.70
2023-04-12T04:34:22.280Z,6.70
2023-04-12T04:36:49.267Z,6.70
2023-04-12T04:39:15.929Z,6.70
2023-04-12T04:41:42.773Z,6.70
2023-04-12T04:44:09.545Z,6.70
2023-04-12T04:46:39.759Z,6.70
2023-04-12T04:49:06.683Z,6.70
2023-04-12T04:51:33.381Z,6.70
2023-04-12T04:54:00.542Z,6.70
2023-04-12T04:56:27.147Z,6.70
2023-04-12T04:58:56.725Z,6.70
2023-04-12T05:01:28.765Z,6.70
2023-04-12T05:03:55.954Z,6.70
2023-04-12T05:06:23.397Z,6.70
2023-04-12T05:08:50.340Z,6.80
2023-04-12T05:11:16.902Z,6.70
2023-04-12T05:13:43.529Z,6.70
2023-04-12T05:16:11.401Z,6.80
2023-04-12T05:18:39.969Z,6.70
2023-04-12T05:21:06.725Z,6.70
2023-04-12T05:23:36.401Z,6.70
2023-04-12T05:26:03.065Z,6.80
2023-04-12T05:28:29.921Z,6.70
2023-04-12T05:30:56.519Z,6.80
2023-04-12T05:33:23.223Z,6.80
2023-04-12T05:35:49.930Z,6.80
2023-04-12T05:38:16.603Z,7.10
2023-04-12T05:40:44.258Z,7.90
2023-04-12T05:43:14.609Z,6.90
2023-04-12T05:45:41.752Z,6.90
2023-04-12T05:48:08.906Z,6.90
2023-04-12T05:50:35.809Z,7.00
2023-04-12T05:53:03.036Z,8.50
2023-04-12T05:55:30.226Z,7.70
2023-04-12T05:57:58.769Z,7.30
2023-04-12T06:00:26.219Z,7.00
2023-04-12T06:02:53.273Z,7.00
2023-04-12T06:05:20.094Z,7.00
2023-04-12T06:07:49.812Z,7.00
2023-04-12T06:10:17.378Z,7.10
2023-04-12T06:12:44.844Z,7.00
2023-04-12T06:15:11.612Z,7.10
2023-04-12T06:17:38.575Z,7.10
2023-04-12T06:20:08.219Z,7.10
2023-04-12T06:22:35.064Z,7.10
2023-04-12T06:25:01.653Z,7.20
2023-04-12T06:27:28.444Z,7.20
2023-04-12T06:29:55.206Z,7.20
2023-04-12T06:32:22.141Z,7.30
2023-04-12T06:34:48.941Z,7.30
2023-04-12T06:37:16.447Z,7.40
2023-04-12T06:39:43.474Z,7.40
2023-04-12T06:42:11.222Z,7.40
2023-04-12T06:44:42.071Z,7.40
2023-04-12T06:47:09.500Z,7.50
2023-04-12T06:49:36.481Z,7.50
2023-04-12T06:52:03.209Z,7.50
2023-04-12T06:54:30.072Z,7.50
2023-04-12T06:56:57.814Z,7.60
2023-04-12T06:59:24.584Z,8.10
2023-04-12T07:01:51.311Z,7.70
2023-04-12T07:04:18.187Z,7.70
2023-04-12T07:06:44.966Z,7.80
2023-04-12T07:09:11.976Z,7.80
2023-04-12T07:11:38.709Z,7.80
2023-04-12T07:14:05.510Z,7.90
2023-04-12T07:16:32.679Z,7.90
2023-04-12T07:19:00.512Z,7.80
2023-04-12T07:21:27.887Z,8.00
2023-04-12T07:23:55.206Z,8.10
2023-04-12T07:26:22.257Z,8.20
2023-04-12T07:28:49.045Z,8.40
2023-04-12T07:31:15.947Z,8.30
2023-04-12T07:33:43.290Z,8.50
2023-04-12T07:36:11.235Z,8.50
2023-04-12T07:38:37.911Z,8.60
2023-04-12T07:41:04.626Z,8.60
2023-04-12T07:43:31.300Z,8.70
2023-04-12T07:45:58.241Z,8.80
2023-04-12T07:48:25.202Z,8.90
2023-04-12T07:50:52.113Z,9.10
2023-04-12T07:53:23.410Z,9.10
2023-04-12T07:55:50.509Z,9.20
2023-04-12T07:58:17.619Z,10.00
2023-04-12T08:00:44.550Z,9.20
2023-04-12T08:03:12.234Z,9.20
2023-04-12T08:05:39.175Z,9.20
2023-04-12T08:08:06.245Z,9.20
2023-04-12T08:10:32.931Z,9.20
2023-04-12T08:12:59.470Z,10.50
2023-04-12T08:15:26.402Z,9.30
2023-04-12T08:17:53.301Z,9.20
2023-04-12T08:20:20.237Z,9.30
2023-04-12T08:22:47.204Z,9.40
2023-04-12T08:25:14.003Z,10.60
2023-04-12T08:27:44.190Z,9.50
2023-04-12T08:30:11.933Z,9.50
2023-04-12T08:32:38.826Z,9.60
2023-04-12T08:35:05.881Z,9.60
2023-04-12T08:37:32.624Z,9.60
2023-04-12T08:40:00.870Z,9.60
2023-04-12T08:42:27.718Z,9.70
2023-04-12T08:44:54.556Z,9.70
2023-04-12T08:47:21.500Z,9.80
2023-04-12T08:49:48.113Z,9.70
2023-04-12T08:52:15.666Z,9.70
2023-04-12T08:54:42.269Z,10.80
2023-04-12T08:57:09.471Z,9.70
2023-04-12T08:59:41.230Z,9.70
2023-04-12T09:02:07.994Z,9.70
2023-04-12T09:04:35.007Z,9.80
2023-04-12T09:07:02.969Z,11.10
2023-04-12T09:09:42.724Z,9.90
2023-04-12T09:12:10.057Z,9.90
2023-04-12T09:14:37.998Z,9.90
2023-04-12T09:17:04.981Z,9.90
2023-04-12T09:19:35.946Z,10.00
2023-04-12T09:22:02.810Z,10.10
2023-04-12T09:24:29.722Z,10.10
2023-04-12T09:27:04.077Z,10.20
2023-04-12T09:29:31.139Z,10.20
2023-04-12T09:32:00.912Z,11.40
2023-04-12T09:34:28.182Z,10.10
2023-04-12T09:36:54.787Z,10.10
2023-04-12T09:39:30.395Z,10.20
2023-04-12T09:42:14.906Z,11.60
2023-04-12T09:44:53.166Z,10.10
2023-04-12T09:47:20.128Z,10.10
2023-04-12T09:49:46.736Z,10.20
2023-04-12T09:52:14.283Z,10.30
2023-04-12T09:54:44.830Z,10.40
2023-04-12T09:57:12.435Z,10.40
2023-04-12T09:59:43.241Z,10.60
2023-04-12T10:02:19.621Z,10.60
2023-04-12T10:04:48.604Z,10.70
2023-04-12T10:07:15.866Z,10.90
2023-04-12T10:09:42.503Z,11.70
2023-04-12T10:12:09.779Z,11.10
2023-04-12T10:14:37.174Z,12.70
2023-04-12T10:17:04.494Z,12.80
2023-04-12T10:19:33.682Z,11.30
2023-04-12T10:22:00.322Z,11.20
2023-04-12T10:24:28.385Z,11.30
2023-04-12T10:26:55.990Z,11.40
2023-04-12T10:29:34.514Z,11.50
2023-04-12T10:32:23.332Z,11.60
2023-04-12T10:34:50.691Z,11.70
2023-04-12T10:37:17.474Z,13.20
2023-04-12T10:39:44.959Z,11.90
2023-04-12T10:42:18.951Z,11.90
2023-04-12T10:44:46.115Z,12.00
2023-04-12T10:47:12.847Z,12.00
2023-04-12T10:49:39.895Z,12.70
2023-04-12T10:52:09.711Z,12.00
2023-04-12T10:54:36.801Z,12.00
2023-04-12T10:57:04.301Z,12.10
2023-04-12T10:59:51.109Z,12.20
2023-04-12T11:02:17.964Z,12.30
2023-04-12T11:05:11.510Z,12.40
2023-04-12T11:07:38.986Z,12.40
2023-04-12T11:10:12.400Z,13.40
2023-04-12T11:12:39.169Z,12.30
2023-04-12T11:15:06.854Z,12.30
2023-04-12T11:17:36.963Z,12.50
2023-04-12T11:20:04.845Z,12.50
2023-04-12T11:22:33.748Z,12.50
2023-04-12T11:25:01.503Z,12.50
2023-04-12T11:27:28.702Z,12.00
2023-04-12T11:29:56.514Z,12.60
2023-04-12T11:32:24.336Z,14.40
2023-04-12T11:34:51.448Z,13.60
2023-04-12T11:37:18.985Z,14.50
2023-04-12T11:39:46.310Z,12.70
2023-04-12T11:42:17.083Z,14.00
2023-04-12T11:47:17.804Z,13.20
2023-04-12T11:49:45.227Z,13.00
2023-04-12T11:52:12.952Z,14.20
2023-04-12T11:54:49.568Z,15.50
2023-04-12T11:57:17.487Z,12.90
2023-04-12T11:59:45.013Z,13.00
2023-04-12T12:02:22.505Z,12.90
2023-04-12T12:04:50.223Z,15.50
2023-04-12T12:07:17.870Z,12.90
2023-04-12T12:09:45.236Z,14.60
2023-04-12T12:12:12.952Z,13.10
2023-04-12T12:14:40.040Z,15.10
2023-04-12T12:17:17.444Z,14.40
2023-04-12T12:19:44.983Z,13.00
2023-04-12T12:22:16.220Z,13.30
2023-04-12T12:24:52.061Z,13.10
2023-04-12T12:27:22.415Z,13.20
2023-04-12T12:29:49.916Z,13.30
2023-04-12T12:32:17.291Z,13.50
2023-04-12T12:34:50.661Z,13.80
2023-04-12T12:37:19.934Z,13.80
2023-04-12T12:40:02.050Z,15.20
2023-04-12T12:42:29.168Z,13.60
2023-04-12T12:44:55.793Z,13.50
2023-04-12T12:47:22.584Z,13.50
2023-04-12T12:49:49.459Z,14.20
2023-04-12T12:52:17.783Z,15.90
2023-04-12T12:54:44.925Z,15.10
2023-04-12T12:57:11.674Z,13.90
2023-04-12T12:59:38.407Z,15.70
2023-04-12T13:02:05.734Z,13.90
2023-04-12T13:04:32.867Z,13.80
2023-04-12T13:06:59.828Z,15.20
2023-04-12T13:09:26.649Z,13.60
2023-04-12T13:11:53.536Z,14.80
2023-04-12T13:14:20.367Z,15.70
2023-04-12T13:16:49.227Z,13.80
2023-04-12T13:19:16.344Z,13.40
2023-04-12T13:21:43.630Z,14.60
2023-04-12T13:24:10.423Z,13.50
2023-04-12T13:26:37.068Z,13.60
2023-04-12T13:29:03.753Z,14.50
2023-04-12T13:31:30.471Z,15.10
2023-04-12T13:33:57.314Z,15.50
2023-04-12T13:36:23.911Z,14.20
2023-04-12T13:38:50.539Z,15.80
2023-04-12T13:41:17.214Z,16.20
2023-04-12T13:43:43.815Z,14.80
2023-04-12T13:46:10.476Z,14.40
2023-04-12T13:48:37.375Z,15.80
2023-04-12T13:51:04.251Z,13.80
2023-04-12T13:53:33.838Z,13.80
2023-04-12T13:56:00.799Z,13.80
2023-04-12T13:58:28.321Z,14.00
2023-04-12T14:00:56.786Z,14.80
2023-04-12T14:03:23.617Z,14.10
2023-04-12T14:05:50.598Z,14.20
2023-04-12T14:08:17.247Z,15.40
2023-04-12T14:10:43.859Z,14.60
2023-04-12T14:13:10.642Z,14.90
2023-04-12T14:15:37.826Z,16.70
2023-04-12T14:18:04.486Z,14.50
2023-04-12T14:20:31.154Z,14.30
2023-04-12T14:22:57.747Z,15.30
2023-04-12T14:25:24.607Z,14.60
2023-04-12T14:27:52.118Z,14.10
2023-04-12T14:30:19.244Z,14.90
2023-04-12T14:32:47.448Z,15.00
2023-04-12T14:35:14.470Z,15.40
2023-04-12T14:37:41.490Z,14.20
2023-04-12T14:40:08.691Z,15.40
2023-04-12T14:42:35.616Z,14.20
2023-04-12T14:45:02.384Z,14.30
2023-04-12T14:47:29.117Z,14.60
2023-04-12T14:49:55.975Z,14.50
2023-04-12T14:52:22.562Z,14.20
2023-04-12T14:54:49.156Z,14.40
2023-04-12T14:57:16.229Z,14.30
2023-04-12T14:59:43.139Z,14.60
2023-04-12T15:02:10.009Z,15.50
2023-04-12T15:04:36.960Z,13.60
2023-04-12T15:07:03.746Z,13.60
2023-04-12T15:09:30.636Z,14.00
2023-04-12T15:12:01.527Z,14.80
2023-04-12T15:14:28.857Z,13.50
2023-04-12T15:16:55.659Z,13.90
2023-04-12T15:19:23.990Z,11.60
2023-04-12T15:21:57.218Z,11.20
2023-04-12T15:24:24.551Z,10.90
2023-04-12T15:26:53.130Z,12.30
2023-04-12T15:29:21.304Z,10.50
2023-04-12T15:31:48.124Z,10.40
2023-04-12T15:34:15.126Z,10.40
2023-04-12T15:36:43.289Z,12.20
2023-04-12T15:39:10.837Z,10.30
2023-04-12T15:41:38.143Z,12.40
2023-04-12T15:44:05.201Z,12.10
2023-04-12T15:46:31.832Z,10.40
2023-04-12T15:48:58.788Z,10.60
2023-04-12T15:51:27.257Z,11.40
2023-04-12T15:53:55.101Z,12.50
2023-04-12T15:56:25.472Z,11.90
2023-04-12T15:58:52.492Z,11.10
2023-04-12T16:01:19.716Z,10.80
2023-04-12T16:03:50.062Z,10.80
2023-04-12T16:06:20.543Z,10.80
2023-04-12T16:08:48.613Z,10.80
2023-04-12T16:11:16.743Z,10.90
2023-04-12T16:13:45.407Z,11.10
2023-04-12T16:16:13.575Z,12.20
2023-04-12T16:18:41.445Z,10.90
2023-04-12T16:21:08.707Z,12.40
2023-04-12T16:23:36.765Z,12.40
2023-04-12T16:26:04.101Z,10.80
2023-04-12T16:28:31.279Z,10.80
2023-04-12T16:30:58.211Z,10.80
2023-04-12T16:33:24.996Z,13.40
2023-04-12T16:35:51.833Z,11.00
2023-04-12T16:38:18.626Z,13.30
2023-04-12T16:40:45.418Z,12.40
2023-04-12T16:43:12.193Z,10.90
2023-04-12T16:45:38.919Z,10.70
2023-04-12T16:48:06.177Z,10.60
2023-04-12T16:50:33.094Z,10.60
2023-04-12T16:53:01.541Z,10.50
2023-04-12T16:55:30.012Z,10.40
2023-04-12T16:57:58.146Z,10.30
2023-04-12T17:00:27.142Z,10.30
2023-04-12T17:02:54.112Z,10.40
2023-04-12T17:05:21.826Z,10.10
2023-04-12T17:07:49.915Z,10.10
2023-04-12T17:10:23.789Z,10.90
2023-04-12T17:12:51.691Z,9.80
2023-04-12T17:15:21.088Z,9.70
2023-04-12T17:17:48.939Z,9.70
2023-04-12T17:20:16.138Z,10.50
2023-04-12T17:22:42.866Z,9.60
2023-04-12T17:25:10.163Z,9.50
2023-04-12T17:27:37.540Z,9.50
2023-04-12T17:30:05.080Z,9.50
2023-04-12T17:32:34.003Z,9.40
2023-04-12T17:35:00.943Z,10.10
2023-04-12T17:37:30.551Z,9.80
2023-04-12T17:39:57.409Z,9.30
2023-04-12T17:42:24.346Z,9.30
2023-04-12T17:44:51.170Z,9.20
2023-04-12T17:47:17.824Z,9.20
2023-04-12T17:49:44.842Z,9.10
2023-04-12T17:52:11.878Z,9.10
2023-04-12T17:54:38.679Z,9.10
2023-04-12T17:57:05.401Z,9.00
2023-04-12T17:59:32.347Z,9.00
2023-04-12T18:02:02.309Z,9.00
2023-04-12T18:04:29.851Z,9.40
2023-04-12T18:06:57.178Z,8.80
2023-04-12T18:09:25.146Z,8.80
2023-04-12T18:11:52.269Z,8.80
2023-04-12T18:14:20.686Z,8.80
2023-04-12T18:16:47.368Z,8.80
2023-04-12T18:19:15.422Z,9.70
2023-04-12T18:21:42.142Z,8.70
2023-04-12T18:24:09.189Z,8.60
2023-04-12T18:26:36.006Z,8.60
2023-04-12T18:29:02.667Z,8.60
2023-04-12T18:31:29.286Z,8.60
2023-04-12T18:33:56.483Z,8.50
2023-04-12T18:36:23.837Z,8.50
2023-04-12T18:38:50.474Z,8.70
2023-04-12T18:41:17.494Z,8.40
2023-04-12T18:43:44.202Z,8.40
2023-04-12T18:46:16.412Z,8.40
2023-04-12T18:48:45.483Z,8.40
2023-04-12T18:51:12.953Z,8.40
2023-04-12T18:53:39.762Z,8.40
2023-04-12T18:56:10.273Z,8.70
2023-04-12T18:58:54.050Z,8.40
2023-04-12T19:01:21.955Z,8.40
2023-04-12T19:03:48.761Z,10.30
2023-04-12T19:06:15.750Z,8.30
2023-04-12T19:08:43.251Z,8.30
2023-04-12T19:11:10.008Z,8.30
2023-04-12T19:13:37.299Z,8.30
2023-04-12T19:16:07.871Z,8.30
2023-04-12T19:18:35.117Z,8.30
2023-04-12T19:21:02.698Z,8.30
2023-04-12T19:23:30.057Z,8.80
2023-04-12T19:25:59.832Z,9.60
2023-04-12T19:28:27.201Z,8.30
2023-04-12T19:30:54.048Z,10.60
2023-04-12T19:33:20.844Z,8.30
2023-04-12T19:35:47.686Z,8.30
2023-04-12T19:38:15.775Z,8.20
2023-04-12T19:40:42.642Z,8.10
2023-04-12T19:43:09.422Z,9.80
2023-04-12T19:45:36.254Z,8.20
2023-04-12T19:48:03.081Z,8.20
2023-04-12T19:50:30.944Z,10.10
2023-04-12T19:52:57.759Z,8.20
2023-04-12T19:55:25.589Z,8.20
2023-04-12T19:57:53.408Z,8.20
2023-04-12T20:00:20.666Z,8.10
2023-04-12T20:02:47.824Z,8.10
2023-04-12T20:05:16.028Z,8.10
2023-04-12T20:07:44.143Z,8.10
2023-04-12T20:10:11.592Z,8.10
2023-04-12T20:12:38.638Z,8.20
2023-04-12T20:15:06.921Z,8.10
2023-04-12T20:17:34.486Z,8.10
2023-04-12T20:20:01.244Z,8.10
2023-04-12T20:22:27.922Z,8.10
2023-04-12T20:24:54.585Z,8.10
2023-04-12T20:27:22.975Z,8.20
2023-04-12T20:29:49.688Z,8.10
2023-04-12T20:32:16.849Z,8.20
2023-04-12T20:34:47.699Z,8.10
2023-04-12T20:37:14.519Z,8.10
2023-04-12T20:39:41.251Z,8.30
2023-04-12T20:42:08.553Z,8.10
2023-04-12T20:44:35.581Z,8.10
2023-04-12T20:47:02.716Z,8.10
2023-04-12T20:49:30.223Z,8.10
2023-04-12T20:51:59.076Z,8.20
2023-04-12T20:54:26.482Z,8.10
2023-04-12T20:56:54.190Z,8.10
2023-04-12T20:59:24.055Z,8.10
2023-04-12T21:01:51.333Z,7.50
2023-04-12T21:04:19.333Z,7.30
2023-04-12T21:06:47.588Z,7.20
2023-04-12T21:09:14.882Z,7.10
2023-04-12T21:11:42.025Z,7.10
2023-04-12T21:14:09.544Z,7.90
2023-04-12T21:16:39.691Z,7.90
2023-04-12T21:19:06.437Z,6.90
2023-04-12T21:21:34.210Z,6.90
2023-04-12T21:24:01.708Z,6.90
2023-04-12T21:26:28.298Z,8.20
2023-04-12T21:28:55.057Z,7.00
2023-04-12T21:31:22.253Z,7.00
2023-04-12T21:33:52.419Z,7.00
2023-04-12T21:36:19.837Z,7.00
2023-04-12T21:38:46.931Z,7.00
2023-04-12T21:41:13.936Z,7.10
2023-04-12T21:43:41.002Z,7.10
2023-04-12T21:46:07.988Z,7.10
2023-04-12T21:48:35.417Z,7.20
2023-04-12T21:51:02.632Z,7.10
2023-04-12T21:53:29.405Z,7.10
2023-04-12T21:55:56.328Z,7.10
2023-04-12T21:58:23.187Z,7.10
2023-04-12T22:00:49.812Z,7.00
2023-04-12T22:03:16.773Z,7.10
2023-04-12T22:05:51.082Z,7.00
2023-04-12T22:08:20.642Z,7.00
2023-04-12T22:10:47.733Z,7.00
2023-04-12T22:13:14.564Z,7.00
2023-04-12T22:15:42.153Z,7.00
2023-04-12T22:18:10.024Z,7.00
2023-04-12T22:20:37.050Z,7.00
2023-04-12T22:23:03.789Z,7.00
2023-04-12T22:25:30.622Z,7.00
2023-04-12T22:27:58.285Z,7.00
2023-04-12T22:30:25.316Z,6.90
2023-04-12T22:32:52.841Z,6.90
2023-04-12T22:35:21.520Z,6.90
2023-04-12T22:37:48.550Z,6.90
2023-04-12T22:40:15.329Z,6.90
2023-04-12T22:42:48.170Z,6.80
2023-04-12T22:45:16.050Z,6.70
2023-04-12T22:47:43.817Z,6.70
2023-04-12T22:50:12.700Z,6.70
2023-04-12T22:52:39.980Z,6.70
2023-04-12T22:55:07.932Z,6.60
2023-04-12T22:57:36.586Z,6.60
2023-04-12T23:00:05.630Z,6.50
2023-04-12T23:02:33.794Z,6.50
2023-04-12T23:05:02.460Z,6.40
2023-04-12T23:07:30.445Z,6.40
2023-04-12T23:09:57.606Z,6.40
2023-04-12T23:12:24.828Z,6.40
2023-04-12T23:14:55.366Z,6.40
2023-04-12T23:17:22.317Z,6.30
2023-04-12T23:19:50.498Z,6.30
2023-04-12T23:22:44.384Z,6.30
2023-04-12T23:25:20.726Z,6.20
2023-04-12T23:27:47.882Z,6.20
2023-04-12T23:30:15.259Z,6.20
2023-04-12T23:32:42.051Z,6.20
2023-04-12T23:35:08.869Z,6.20
2023-04-12T23:37:36.058Z,6.10
2023-04-12T23:40:06.093Z,6.10
2023-04-12T23:42:33.214Z,6.00
2023-04-12T23:45:00.015Z,6.00
2023-04-12T23:47:27.188Z,6.00
2023-04-12T23:49:53.921Z,6.00
2023-04-12T23:52:20.603Z,6.00
2023-04-12T23:54:47.695Z,6.00
2023-04-12T23:57:14.974Z,5.90
2023-04-12T23:59:41.664Z,5.90
